KCXO/CXO METAR and TAF weather

Enter ICAO airport designator
Station Type Date Time Source
KCXO METAR 2021/05/10 01:53 UTC NOAA

KCXO 100153Z AUTO 14005KT 10SM BKN065 27/21 A2983 RMK AO2 RAB0058E08 SLP098 P0000 T02670211


Station Type Date Time Source
KCXO Decoded METAR 2021/05/10 01:53 UTC NOAA

LONE STAR EXECUTIVE AIRPORT, TX, United States (KCXO) 30-21N 95-25W 75M
May 09, 2021 - 09:53 PM EDT / 2021.05.10 0153 UTC
Wind: from the SE (140 degrees) at 6 MPH (5 KT):0
Visibility: 10 mile(s):0
Sky conditions: mostly cloudy
Precipitation last hour: A trace
Temperature: 80.1 F (26.7 C)
Dew Point: 70.0 F (21.1 C)
Relative Humidity: 71%
Pressure (altimeter): 29.83 in. Hg (1010 hPa)
ob: KCXO 100153Z AUTO 14005KT 10SM BKN065 27/21 A2983 RMK AO2 RAB0058E08 SLP098 P0000 T02670211
cycle: 2

Station Type Date Time Source
KCXO TAF 2021/05/10 00:30 UTC NOAA

TAF
AMD KCXO 100027Z 1000/1024 18010KT P6SM VCSH BKN045 OVC060
FM100300 16006KT P6SM VCSH BKN020 BKN030
FM100600 VRB05KT P6SM VCSH BKN010 OVC020
FM101700 VRB06KT P6SM VCSH BKN020 BKN050

Example: see airport list